Time;durP1;ratioP1;P1;durP2;ratioP2;P2;SDS_P1;SDS_P2;PMS_P1;PMS_P2;Temp;Humidity;BMP_temperature;BMP_pressure;BME280_temperature;BME280_humidity;BME280_pressure;Samples;Min_cycle;Max_cycle;Signal;HPM_P1;HPM_P2
2023/07/01 00:02:04;;;;;;;3.50;2.60;;;25.70;58.10;;;;;;7641687;22;80253;-61
2023/07/01 00:05:04;;;;;;;3.50;2.97;;;25.60;58.20;;;;;;7641941;22;80446;-56
2023/07/01 00:08:05;;;;;;;4.25;2.95;;;25.70;58.30;;;;;;7642516;22;80615;-55
2023/07/01 00:11:06;;;;;;;8.15;3.35;;;25.60;58.40;;;;;;7641215;22;80848;-57
2023/07/01 00:14:07;;;;;;;5.70;3.15;;;25.60;58.40;;;;;;7641562;22;80873;-57
2023/07/01 00:17:11;;;;;;;6.47;3.22;;;25.70;58.50;;;;;;7642542;22;80430;-56
2023/07/01 00:20:12;;;;;;;5.68;3.28;;;25.60;58.50;;;;;;7642457;22;80818;-57
2023/07/01 00:23:13;;;;;;;3.70;2.80;;;25.70;58.60;;;;;;7641753;22;80277;-57
2023/07/01 00:26:13;;;;;;;3.95;3.03;;;25.70;58.70;;;;;;7642664;22;81124;-57
2023/07/01 00:29:14;;;;;;;7.53;3.28;;;25.60;58.70;;;;;;7642023;22;80175;-57
2023/07/01 00:32:14;;;;;;;4.82;3.05;;;25.60;58.80;;;;;;7641570;22;81245;-57
2023/07/01 00:35:15;;;;;;;4.65;3.13;;;25.60;58.90;;;;;;7641903;22;81647;-56
2023/07/01 00:38:16;;;;;;;4.93;3.20;;;25.60;59.00;;;;;;7613986;22;83297;-55
2023/07/01 00:41:17;;;;;;;4.30;3.00;;;25.60;59.10;;;;;;7641809;22;80969;-63
2023/07/01 00:44:18;;;;;;;5.90;2.70;;;25.60;59.20;;;;;;7615342;22;81459;-61
2023/07/01 00:47:18;;;;;;;4.32;2.85;;;25.60;59.40;;;;;;7642661;22;80251;-61
2023/07/01 00:50:19;;;;;;;6.00;3.42;;;25.50;59.40;;;;;;7616331;22;80479;-61
2023/07/01 00:53:20;;;;;;;4.55;2.95;;;25.50;59.50;;;;;;7615467;22;82988;-61
2023/07/01 00:56:20;;;;;;;3.17;2.88;;;25.60;59.60;;;;;;7643872;22;81830;-61
2023/07/01 00:59:20;;;;;;;3.50;2.67;;;25.60;59.90;;;;;;7642580;22;80257;-61
2023/07/01 01:02:21;;;;;;;4.82;3.30;;;25.50;59.90;;;;;;7642304;22;81098;-60
2023/07/01 01:05:23;;;;;;;5.22;3.10;;;25.50;60.00;;;;;;7615380;22;83171;-60
2023/07/01 01:08:24;;;;;;;6.78;3.10;;;25.50;60.30;;;;;;7643001;22;80089;-60
2023/07/01 01:11:24;;;;;;;5.82;3.30;;;25.50;60.20;;;;;;7615691;22;81414;-60
2023/07/01 01:14:25;;;;;;;6.13;2.85;;;25.60;60.30;;;;;;7642526;22;80907;-61
2023/07/01 01:17:25;;;;;;;4.03;2.70;;;25.50;60.30;;;;;;7642143;22;80390;-61
2023/07/01 01:20:26;;;;;;;4.55;3.15;;;25.60;60.50;;;;;;7643022;22;80305;-60
2023/07/01 01:23:27;;;;;;;7.45;2.90;;;25.50;60.40;;;;;;7640316;22;80437;-61
2023/07/01 01:26:28;;;;;;;3.50;3.20;;;25.60;60.60;;;;;;7614573;22;81166;-61
2023/07/01 01:29:28;;;;;;;3.92;3.20;;;25.50;60.60;;;;;;7616092;22;81955;-61
2023/07/01 01:32:29;;;;;;;3.90;3.08;;;25.60;60.60;;;;;;7642093;22;80242;-62
2023/07/01 01:35:30;;;;;;;5.72;2.83;;;25.50;60.70;;;;;;7641454;22;80441;-62
2023/07/01 01:38:30;;;;;;;3.92;2.72;;;25.50;60.70;;;;;;7641721;22;80169;-61
2023/07/01 01:41:31;;;;;;;5.45;3.22;;;25.50;60.70;;;;;;7642088;22;81282;-62
2023/07/01 01:44:31;;;;;;;4.40;3.00;;;25.60;61.00;;;;;;7641617;22;80361;-62
2023/07/01 01:47:32;;;;;;;4.22;2.80;;;25.60;61.00;;;;;;7642401;22;80818;-62
2023/07/01 01:50:32;;;;;;;6.38;3.45;;;25.60;61.30;;;;;;7642201;22;80225;-61
2023/07/01 01:53:33;;;;;;;4.72;2.90;;;25.60;61.20;;;;;;7642309;22;80966;-54
2023/07/01 01:56:33;;;;;;;5.47;3.22;;;25.60;61.20;;;;;;7641223;22;80825;-53
2023/07/01 01:59:34;;;;;;;4.60;3.25;;;25.60;61.20;;;;;;7615335;22;81651;-55
2023/07/01 02:02:36;;;;;;;5.82;3.10;;;25.60;61.20;;;;;;7641030;22;80312;-55
2023/07/01 02:05:37;;;;;;;4.20;3.35;;;25.50;61.20;;;;;;7615233;22;81643;-53
2023/07/01 02:08:37;;;;;;;4.20;3.22;;;25.50;61.30;;;;;;7609802;22;81594;-54
2023/07/01 02:11:38;;;;;;;3.70;2.97;;;25.50;61.40;;;;;;7614424;22;81920;-62
2023/07/01 02:14:39;;;;;;;4.03;3.22;;;25.50;61.40;;;;;;7642030;22;80234;-62
2023/07/01 02:17:39;;;;;;;3.90;3.08;;;25.50;62.10;;;;;;7615037;22;83298;-63
2023/07/01 02:20:40;;;;;;;4.18;3.15;;;25.50;61.70;;;;;;7614953;22;80388;-63
2023/07/01 02:23:40;;;;;;;5.60;3.28;;;25.50;61.90;;;;;;7643866;22;80254;-63
2023/07/01 02:26:41;;;;;;;5.63;3.63;;;25.50;61.90;;;;;;7615171;22;87037;-63
2023/07/01 02:29:44;;;;;;;5.47;3.90;;;25.50;62.10;;;;;;7643836;22;81396;-62
2023/07/01 02:32:44;;;;;;;5.20;4.00;;;25.50;62.00;;;;;;7615219;22;82882;-62
2023/07/01 02:35:45;;;;;;;7.18;4.10;;;25.60;62.20;;;;;;7643735;22;81348;-61
2023/07/01 02:38:45;;;;;;;6.03;4.30;;;25.50;62.20;;;;;;7643433;22;80188;-61
2023/07/01 02:41:46;;;;;;;5.53;3.78;;;25.50;62.30;;;;;;7643314;22;80697;-60
2023/07/01 02:44:47;;;;;;;4.75;3.50;;;25.50;62.40;;;;;;7638931;22;80768;-62
2023/07/01 02:47:48;;;;;;;5.45;3.60;;;25.50;62.50;;;;;;7615643;22;81733;-61
2023/07/01 02:50:49;;;;;;;8.52;3.70;;;25.50;62.40;;;;;;7642229;22;80263;-55
2023/07/01 02:53:49;;;;;;;4.85;3.30;;;25.50;62.50;;;;;;7614834;22;83273;-54
2023/07/01 02:56:50;;;;;;;3.72;3.30;;;25.50;62.60;;;;;;7642536;22;80898;-56
2023/07/01 02:59:50;;;;;;;3.63;3.17;;;25.50;62.60;;;;;;7643398;22;80409;-56
2023/07/01 03:02:51;;;;;;;5.85;3.22;;;25.50;62.70;;;;;;7615586;22;82323;-55
2023/07/01 03:05:51;;;;;;;4.00;2.88;;;25.50;62.70;;;;;;7615693;22;81496;-53
2023/07/01 03:08:52;;;;;;;3.80;3.28;;;25.40;62.80;;;;;;7615895;22;83142;-56
2023/07/01 03:11:52;;;;;;;7.07;3.95;;;25.40;62.90;;;;;;7642373;22;80007;-56
2023/07/01 03:14:53;;;;;;;6.38;3.55;;;25.40;63.80;;;;;;7643511;22;80871;-55
2023/07/01 03:17:53;;;;;;;5.07;3.40;;;25.30;64.10;;;;;;7641414;22;80502;-56
2023/07/01 03:20:57;;;;;;;8.38;3.70;;;25.40;64.50;;;;;;7643659;22;81289;-59
2023/07/01 03:23:58;;;;;;;5.70;4.20;;;25.30;65.30;;;;;;7641001;22;80315;-57
2023/07/01 03:26:58;;;;;;;5.05;3.55;;;25.30;65.00;;;;;;7642548;22;81458;-57
2023/07/01 03:29:59;;;;;;;6.30;3.67;;;25.30;65.40;;;;;;7614990;22;82159;-57
2023/07/01 03:33:00;;;;;;;7.55;3.30;;;25.30;65.50;;;;;;7614708;22;83001;-58
2023/07/01 03:39:07;;;;;;;6.22;3.60;;;25.30;65.90;;;;;;7640761;22;80000;-53
2023/07/01 03:42:07;;;;;;;5.93;3.72;;;25.30;66.20;;;;;;7642248;22;80376;-54
2023/07/01 03:45:08;;;;;;;6.15;3.40;;;25.30;66.50;;;;;;7642070;22;80238;-62
2023/07/01 03:48:08;;;;;;;5.93;3.60;;;25.30;66.60;;;;;;7640512;22;80645;-61
2023/07/01 03:51:09;;;;;;;4.97;3.50;;;25.30;66.70;;;;;;7641793;22;81592;-62
2023/07/01 03:54:10;;;;;;;5.25;3.55;;;25.30;66.90;;;;;;7638846;22;81089;-61
2023/07/01 03:57:10;;;;;;;4.55;3.97;;;25.30;67.30;;;;;;7642245;22;80808;-60
2023/07/01 04:00:17;;;;;;;6.07;3.40;;;25.30;67.40;;;;;;7614952;22;81822;-59
2023/07/01 04:03:17;;;;;;;8.45;4.00;;;25.30;67.50;;;;;;7641704;22;80658;-60
2023/07/01 04:06:18;;;;;;;5.32;3.67;;;25.30;67.50;;;;;;7642574;22;81478;-60
2023/07/01 04:09:18;;;;;;;7.20;3.90;;;25.20;67.70;;;;;;7640467;22;80398;-60
2023/07/01 04:12:19;;;;;;;6.55;4.68;;;25.30;68.20;;;;;;7642220;22;80762;-61
2023/07/01 04:15:19;;;;;;;8.25;3.97;;;25.30;68.10;;;;;;7637887;22;80747;-61
2023/07/01 04:18:20;;;;;;;6.18;4.00;;;25.30;68.20;;;;;;7638849;22;80696;-60
2023/07/01 04:21:21;;;;;;;3.65;3.35;;;25.30;68.00;;;;;;7634841;22;80806;-61
2023/07/01 04:24:22;;;;;;;6.20;3.70;;;25.30;68.30;;;;;;7639872;22;80496;-62
2023/07/01 04:27:22;;;;;;;5.40;3.85;;;25.30;68.40;;;;;;7639468;22;80315;-61
2023/07/01 04:30:23;;;;;;;5.20;3.42;;;25.30;68.50;;;;;;7638845;22;80375;-62
2023/07/01 04:33:24;;;;;;;7.18;4.13;;;25.30;68.70;;;;;;7640299;22;80947;-61
2023/07/01 04:36:24;;;;;;;5.75;3.58;;;25.30;68.80;;;;;;7640143;22;80046;-61
2023/07/01 04:39:25;;;;;;;5.47;3.92;;;25.30;69.00;;;;;;7640447;22;80973;-61
2023/07/01 04:42:25;;;;;;;5.93;3.65;;;25.30;68.70;;;;;;7641387;22;80605;-61
2023/07/01 04:45:29;;;;;;;6.85;3.38;;;25.30;69.00;;;;;;7640039;22;87781;-61
2023/07/01 04:48:29;;;;;;;6.13;3.80;;;25.30;69.00;;;;;;7627877;22;80756;-60
2023/07/01 04:51:30;;;;;;;4.07;3.67;;;25.20;69.00;;;;;;7628484;22;81359;-61
2023/07/01 04:54:30;;;;;;;5.13;4.07;;;25.30;69.20;;;;;;7630386;22;80507;-61
2023/07/01 04:57:31;;;;;;;6.60;4.20;;;25.20;69.30;;;;;;7633445;22;80349;-62
2023/07/01 05:00:31;;;;;;;4.65;3.40;;;25.30;69.50;;;;;;7636554;22;80585;-62
2023/07/01 05:03:32;;;;;;;5.55;3.95;;;25.20;69.60;;;;;;7641356;22;80244;-62
2023/07/01 05:06:33;;;;;;;6.25;3.90;;;25.30;69.70;;;;;;7639717;22;80319;-58
2023/07/01 05:09:33;;;;;;;4.90;3.55;;;25.30;69.60;;;;;;7640308;22;80251;-62
2023/07/01 05:12:34;;;;;;;4.10;3.47;;;25.20;69.60;;;;;;7641194;22;80916;-64
2023/07/01 05:15:36;;;;;;;6.40;4.15;;;25.20;70.00;;;;;;7613950;22;82353;-57
2023/07/01 05:18:36;;;;;;;10.32;4.70;;;25.20;70.10;;;;;;7639261;22;80560;-59
2023/07/01 05:21:37;;;;;;;6.50;4.63;;;25.20;70.10;;;;;;7640921;22;81650;-62
2023/07/01 05:24:38;;;;;;;7.97;4.28;;;25.20;69.80;;;;;;7639851;22;80428;-57
2023/07/01 05:27:38;;;;;;;8.75;4.43;;;25.20;70.40;;;;;;7640534;22;80779;-58
2023/07/01 05:30:39;;;;;;;5.68;4.15;;;25.20;70.60;;;;;;7640007;22;80305;-60
2023/07/01 05:33:39;;;;;;;7.60;4.50;;;25.30;71.00;;;;;;7639311;22;81417;-55
2023/07/01 05:36:40;;;;;;;10.40;4.82;;;25.30;71.10;;;;;;7641359;22;80327;-58
2023/07/01 05:39:40;;;;;;;8.73;4.53;;;25.40;70.90;;;;;;7642114;22;80366;-59
2023/07/01 05:42:41;;;;;;;7.32;4.63;;;25.40;70.70;;;;;;7641855;22;80892;-59
2023/07/01 05:45:41;;;;;;;7.50;4.47;;;25.40;70.80;;;;;;7642106;22;80737;-58
2023/07/01 05:48:42;;;;;;;4.78;3.85;;;25.30;70.70;;;;;;7642853;22;81076;-58
2023/07/01 05:51:43;;;;;;;7.75;4.97;;;25.40;70.80;;;;;;7616596;22;83584;-58
2023/07/01 05:54:43;;;;;;;15.88;9.48;;;25.30;71.20;;;;;;7642584;22;80008;-68
2023/07/01 05:57:44;;;;;;;12.18;8.57;;;25.30;71.70;;;;;;7646253;22;80800;-69
2023/07/01 06:00:45;;;;;;;13.35;8.05;;;25.30;71.70;;;;;;7644064;22;81561;-66
2023/07/01 06:03:45;;;;;;;13.50;7.72;;;25.30;71.30;;;;;;7644247;22;80931;-70
2023/07/01 06:06:46;;;;;;;16.60;9.15;;;25.40;71.80;;;;;;7643251;22;81089;-68
2023/07/01 06:09:47;;;;;;;14.35;8.05;;;25.40;71.90;;;;;;7640823;22;81560;-67
2023/07/01 06:12:47;;;;;;;10.82;7.95;;;25.50;72.70;;;;;;7640634;22;80526;-71
2023/07/01 06:15:48;;;;;;;21.10;12.00;;;25.50;71.90;;;;;;7639898;22;80958;-66
2023/07/01 06:18:48;;;;;;;20.58;12.85;;;25.50;72.30;;;;;;7612965;22;83254;-65
2023/07/01 06:21:49;;;;;;;33.45;18.58;;;25.60;72.00;;;;;;7639638;22;83072;-67
2023/07/01 06:24:50;;;;;;;27.95;15.48;;;25.60;72.70;;;;;;7637814;22;82940;-63
2023/07/01 06:27:50;;;;;;;15.85;9.85;;;25.70;72.30;;;;;;7637812;22;83127;-63
2023/07/01 06:30:51;;;;;;;17.70;8.43;;;25.60;72.20;;;;;;7642387;22;81532;-60
2023/07/01 06:33:51;;;;;;;29.30;7.88;;;25.60;71.70;;;;;;7642915;22;80750;-59
2023/07/01 06:36:52;;;;;;;18.23;6.95;;;25.60;71.90;;;;;;7636580;22;81338;-58
2023/07/01 06:39:52;;;;;;;10.63;6.47;;;25.60;71.80;;;;;;7613046;22;82277;-62
2023/07/01 06:42:54;;;;;;;10.02;5.53;;;25.50;71.60;;;;;;7642539;22;80659;-65
2023/07/01 06:45:54;;;;;;;11.05;5.80;;;25.50;72.60;;;;;;7641687;22;80315;-71
2023/07/01 06:48:55;;;;;;;9.52;5.47;;;25.60;72.30;;;;;;7640525;22;80178;-57
2023/07/01 06:51:55;;;;;;;13.77;6.10;;;25.50;72.20;;;;;;7640379;22;80786;-59
2023/07/01 06:54:56;;;;;;;10.70;5.90;;;25.50;73.90;;;;;;7639217;22;84860;-57
2023/07/01 06:57:57;;;;;;;8.77;6.38;;;25.50;73.90;;;;;;7642265;22;80591;-58
2023/07/01 07:00:57;;;;;;;9.68;6.13;;;25.50;74.10;;;;;;7642305;22;80887;-58
2023/07/01 07:03:58;;;;;;;9.15;5.70;;;25.40;73.70;;;;;;7640177;22;80683;-58
2023/07/01 07:06:58;;;;;;;7.25;5.20;;;25.40;74.00;;;;;;7643876;22;80263;-57
2023/07/01 07:09:59;;;;;;;11.50;7.28;;;25.40;73.20;;;;;;7642531;22;80611;-49
2023/07/01 07:12:59;;;;;;;7.82;5.35;;;25.30;73.90;;;;;;7641968;22;80441;-57
2023/07/01 07:16:00;;;;;;;8.90;5.40;;;25.10;70.10;;;;;;7642862;22;80545;-60
2023/07/01 07:19:01;;;;;;;6.70;4.60;;;25.00;70.90;;;;;;7642351;22;80906;-56
2023/07/01 07:22:01;;;;;;;7.15;4.82;;;25.00;73.00;;;;;;7640160;22;83610;-54
2023/07/01 07:25:02;;;;;;;7.68;4.90;;;24.90;69.10;;;;;;7642818;22;81312;-68
2023/07/01 07:28:05;;;;;;;8.93;4.78;;;24.70;65.60;;;;;;7643124;22;80520;-68
2023/07/01 07:31:06;;;;;;;8.75;4.70;;;24.50;65.10;;;;;;7640818;22;86381;-68
2023/07/01 07:34:06;;;;;;;8.20;4.97;;;24.60;69.50;;;;;;7633327;22;81327;-64
2023/07/01 07:37:07;;;;;;;7.47;4.57;;;24.60;72.70;;;;;;7637762;22;80887;-71
2023/07/01 07:40:08;;;;;;;127.28;70.30;;;24.60;75.50;;;;;;7624495;22;82510;-66
2023/07/01 07:43:09;;;;;;;276.70;155.27;;;24.70;78.70;;;;;;7630348;22;83032;-57
2023/07/01 07:46:09;;;;;;;347.60;195.82;;;24.70;79.80;;;;;;7630381;22;86131;-55
2023/07/01 07:49:10;;;;;;;409.20;232.68;;;24.70;80.80;;;;;;7630088;22;86955;-56
2023/07/01 07:52:10;;;;;;;437.67;246.95;;;24.70;81.40;;;;;;7625314;22;85173;-54
2023/07/01 07:55:11;;;;;;;460.83;254.57;;;24.70;80.80;;;;;;7628609;22;86133;-53
2023/07/01 07:58:11;;;;;;;473.45;259.60;;;24.70;80.00;;;;;;7630435;22;85578;-51
2023/07/01 08:01:12;;;;;;;459.23;247.75;;;24.70;80.00;;;;;;7631568;22;85690;-66
2023/07/01 08:04:12;;;;;;;410.55;217.00;;;24.80;80.20;;;;;;7634448;22;86474;-62
2023/07/01 08:07:13;;;;;;;316.60;171.05;;;24.90;80.00;;;;;;7632107;22;86171;-61
2023/07/01 08:10:13;;;;;;;251.80;136.05;;;24.90;79.90;;;;;;7636335;22;85674;-64
2023/07/01 08:13:14;;;;;;;185.10;102.75;;;24.90;78.70;;;;;;7634980;22;85448;-64
2023/07/01 08:16:14;;;;;;;149.85;79.10;;;24.90;78.70;;;;;;7628330;22;85793;-67
2023/07/01 08:19:15;;;;;;;150.07;75.72;;;24.90;79.00;;;;;;7634075;22;84910;-57
2023/07/01 08:22:18;;;;;;;123.47;67.43;;;25.00;78.90;;;;;;7630204;22;83761;-56
2023/07/01 08:25:18;;;;;;;99.70;55.92;;;25.00;78.80;;;;;;7637056;22;83706;-52
2023/07/01 08:28:19;;;;;;;84.55;44.72;;;25.10;78.50;;;;;;7638750;22;82674;-51
2023/07/01 08:31:19;;;;;;;71.40;39.20;;;25.10;78.40;;;;;;7637561;22;83134;-50
2023/07/01 08:34:20;;;;;;;60.63;34.58;;;25.10;78.50;;;;;;7639708;22;83038;-56
2023/07/01 08:37:20;;;;;;;31.23;20.27;;;25.10;78.20;;;;;;7633716;22;83276;-66
2023/07/01 08:40:21;;;;;;;20.17;13.55;;;24.80;78.10;;;;;;7639534;22;88353;-66
2023/07/01 08:43:21;;;;;;;20.33;13.63;;;24.60;79.00;;;;;;7636014;22;82603;-64
2023/07/01 08:46:23;;;;;;;12.85;8.88;;;24.00;82.50;;;;;;7635581;22;83123;-65
2023/07/01 08:49:24;;;;;;;10.30;6.25;;;24.00;82.80;;;;;;7615919;22;84179;-64
2023/07/01 08:52:24;;;;;;;9.05;6.90;;;23.60;84.80;;;;;;7640501;22;80416;-70
2023/07/01 08:55:24;;;;;;;9.23;5.97;;;23.50;85.90;;;;;;7616444;22;81652;-66
2023/07/01 08:58:25;;;;;;;15.80;5.78;;;23.30;87.90;;;;;;7641367;22;81167;-49
2023/07/01 09:01:26;;;;;;;6.25;4.80;;;23.10;88.90;;;;;;7641290;22;80449;-54
2023/07/01 09:04:27;;;;;;;7.78;5.30;;;23.10;89.30;;;;;;7640598;22;81916;-53
2023/07/01 09:07:29;;;;;;;8.45;4.90;;;22.90;90.30;;;;;;7639789;22;81297;-53
2023/07/01 09:10:29;;;;;;;14.02;5.28;;;22.70;90.20;;;;;;7639670;22;80258;-55
2023/07/01 09:13:30;;;;;;;7.45;5.00;;;22.60;90.90;;;;;;7640960;22;80863;-56
2023/07/01 09:16:31;;;;;;;6.93;4.10;;;22.50;90.50;;;;;;7642460;22;81019;-63
2023/07/01 09:19:32;;;;;;;6.78;3.92;;;22.90;90.20;;;;;;7641023;22;81447;-64
2023/07/01 09:22:32;;;;;;;6.97;4.28;;;23.10;89.00;;;;;;7642822;22;80816;-63
2023/07/01 09:25:33;;;;;;;6.15;4.05;;;23.40;87.50;;;;;;7647116;22;80427;-63
2023/07/01 09:28:34;;;;;;;6.90;4.25;;;23.60;86.70;;;;;;7645415;22;81265;-63
2023/07/01 09:31:34;;;;;;;6.93;4.82;;;23.70;85.90;;;;;;7645217;22;80880;-64
2023/07/01 09:34:35;;;;;;;6.82;4.53;;;23.80;85.60;;;;;;7644785;22;80911;-65
2023/07/01 09:37:35;;;;;;;7.82;4.43;;;23.90;85.20;;;;;;7645601;22;81191;-63
2023/07/01 09:40:36;;;;;;;7.18;4.13;;;24.00;84.70;;;;;;7645207;22;81127;-62
2023/07/01 09:43:36;;;;;;;10.40;5.55;;;24.10;83.90;;;;;;7646010;22;80877;-63
2023/07/01 09:46:37;;;;;;;6.15;4.38;;;24.00;85.10;;;;;;7644552;22;80974;-64
2023/07/01 09:49:40;;;;;;;6.00;4.78;;;24.00;85.60;;;;;;7646564;22;80962;-63
2023/07/01 09:52:41;;;;;;;8.95;4.70;;;24.00;85.20;;;;;;7643822;22;82486;-59
2023/07/01 09:55:41;;;;;;;6.40;4.28;;;24.00;85.70;;;;;;7642373;22;80260;-58
2023/07/01 09:58:42;;;;;;;6.97;4.80;;;24.10;85.10;;;;;;7643626;22;80398;-58
2023/07/01 10:01:42;;;;;;;6.35;5.10;;;24.30;85.20;;;;;;7646283;22;80947;-58
2023/07/01 10:04:43;;;;;;;7.75;4.45;;;24.30;85.20;;;;;;7646994;22;80457;-59
2023/07/01 10:07:43;;;;;;;6.03;4.70;;;24.30;84.90;;;;;;7645231;22;80929;-57
2023/07/01 10:10:44;;;;;;;6.20;4.20;;;24.30;85.40;;;;;;7645961;22;80155;-58
2023/07/01 10:13:45;;;;;;;11.77;4.57;;;24.40;85.10;;;;;;7643090;22;80635;-58
2023/07/01 10:16:46;;;;;;;7.50;4.63;;;24.60;85.50;;;;;;7643649;22;81257;-59
2023/07/01 10:19:47;;;;;;;7.38;5.05;;;24.40;85.70;;;;;;7643071;22;80403;-60
2023/07/01 10:22:48;;;;;;;5.63;4.97;;;24.40;86.00;;;;;;7645224;22;81568;-59
2023/07/01 10:25:48;;;;;;;6.40;4.25;;;24.20;86.30;;;;;;7642827;22;80635;-59
2023/07/01 10:28:49;;;;;;;8.50;5.00;;;24.10;87.90;;;;;;7645342;22;80458;-59
2023/07/01 10:31:49;;;;;;;8.02;5.70;;;24.30;88.00;;;;;;7643467;22;80779;-60
2023/07/01 10:34:50;;;;;;;8.10;6.13;;;24.50;87.30;;;;;;7641811;22;81145;-59
2023/07/01 10:37:50;;;;;;;9.02;5.72;;;24.60;87.90;;;;;;7638068;22;80600;-59
2023/07/01 10:40:51;;;;;;;7.32;5.47;;;24.80;87.90;;;;;;7642659;22;81351;-58
2023/07/01 10:43:51;;;;;;;6.80;4.85;;;24.90;87.20;;;;;;7641345;22;81492;-58
2023/07/01 10:46:52;;;;;;;6.75;4.95;;;25.00;87.30;;;;;;7643336;22;80374;-58
2023/07/01 10:49:52;;;;;;;7.55;4.78;;;25.10;87.10;;;;;;7640144;22;81113;-58
2023/07/01 10:52:53;;;;;;;5.32;4.60;;;25.10;86.20;;;;;;7642577;22;80793;-58
2023/07/01 10:55:53;;;;;;;10.65;5.15;;;25.10;86.20;;;;;;7642380;22;80449;-59
2023/07/01 10:58:54;;;;;;;9.05;5.07;;;25.10;86.10;;;;;;7641804;22;81502;-59
2023/07/01 11:01:56;;;;;;;6.10;4.35;;;25.20;85.40;;;;;;7642030;22;80452;-58
2023/07/01 11:04:56;;;;;;;6.63;4.80;;;24.90;84.00;;;;;;7643620;22;80685;-57
2023/07/01 11:07:57;;;;;;;6.70;5.53;;;24.60;86.00;;;;;;7643725;22;80399;-58
2023/07/01 11:10:57;;;;;;;6.85;4.43;;;24.80;85.00;;;;;;7642814;22;81665;-58
2023/07/01 11:13:58;;;;;;;8.70;4.50;;;24.70;85.00;;;;;;7639105;22;80034;-60
2023/07/01 11:16:59;;;;;;;6.82;4.22;;;24.90;86.10;;;;;;7642463;22;80397;-58
2023/07/01 11:19:59;;;;;;;6.60;4.30;;;25.00;84.40;;;;;;7642490;22;80440;-59
2023/07/01 11:23:00;;;;;;;13.43;5.32;;;25.10;85.00;;;;;;7643068;22;82059;-62
2023/07/01 11:26:00;;;;;;;8.30;4.15;;;25.20;84.20;;;;;;7640336;22;80522;-65
2023/07/01 11:29:01;;;;;;;6.72;4.35;;;25.40;82.10;;;;;;7615235;22;81596;-65
2023/07/01 11:32:01;;;;;;;5.80;4.78;;;25.40;81.10;;;;;;7627926;22;80714;-62
2023/07/01 11:35:02;;;;;;;9.63;5.30;;;25.50;80.40;;;;;;7638333;22;81021;-65
2023/07/01 11:38:02;;;;;;;6.93;5.28;;;25.50;81.10;;;;;;7636378;22;80283;-65
2023/07/01 11:41:03;;;;;;;12.07;6.28;;;25.50;79.80;;;;;;7636811;22;80968;-62
2023/07/01 11:44:03;;;;;;;13.38;7.25;;;25.50;79.80;;;;;;7637000;22;80757;-67
2023/07/01 11:47:04;;;;;;;8.02;6.22;;;25.50;80.80;;;;;;7640327;22;80823;-65
2023/07/01 11:50:04;;;;;;;6.75;5.47;;;25.50;81.30;;;;;;7635473;22;81267;-61
2023/07/01 11:53:05;;;;;;;12.63;6.05;;;25.60;80.40;;;;;;7614003;22;81724;-63
2023/07/01 11:56:05;;;;;;;6.15;5.43;;;25.60;81.40;;;;;;7612898;22;81703;-63
2023/07/01 11:59:06;;;;;;;8.32;4.97;;;25.60;82.30;;;;;;7634345;22;81656;-62
2023/07/01 12:02:06;;;;;;;9.20;5.55;;;25.60;80.60;;;;;;7641666;22;80563;-65
2023/07/01 12:05:07;;;;;;;9.27;5.70;;;25.70;80.90;;;;;;7639178;22;80507;-63
2023/07/01 12:08:08;;;;;;;16.95;6.15;;;25.70;81.50;;;;;;7641398;22;80265;-65
2023/07/01 12:11:09;;;;;;;6.45;5.25;;;25.70;81.30;;;;;;7641538;22;80378;-67
2023/07/01 12:14:09;;;;;;;7.78;5.50;;;25.60;81.60;;;;;;7641176;22;80875;-64
2023/07/01 12:17:10;;;;;;;10.48;6.10;;;25.60;80.70;;;;;;7640076;22;80537;-65
2023/07/01 12:20:10;;;;;;;12.05;8.48;;;25.60;80.20;;;;;;7638692;22;80147;-64
2023/07/01 12:23:11;;;;;;;9.73;7.75;;;25.60;80.70;;;;;;7643967;22;80451;-63
2023/07/01 12:26:11;;;;;;;8.65;6.68;;;25.70;81.30;;;;;;7642502;22;80697;-65
2023/07/01 12:29:12;;;;;;;6.20;5.60;;;25.70;80.00;;;;;;7644474;22;80785;-66
2023/07/01 12:32:12;;;;;;;9.15;6.03;;;25.70;79.60;;;;;;7643185;22;80124;-64
2023/07/01 12:35:14;;;;;;;15.45;6.40;;;25.70;79.80;;;;;;7643101;22;80454;-66
2023/07/01 12:38:15;;;;;;;16.02;6.78;;;25.70;79.50;;;;;;7640422;22;80480;-57
2023/07/01 12:41:15;;;;;;;11.40;6.22;;;25.70;78.40;;;;;;7643455;22;81097;-59
2023/07/01 12:44:16;;;;;;;9.98;6.40;;;25.70;77.40;;;;;;7615145;22;81527;-59
2023/07/01 12:47:18;;;;;;;8.00;5.75;;;25.70;77.20;;;;;;7633197;22;85999;-56
2023/07/01 12:50:19;;;;;;;7.53;6.72;;;25.70;78.10;;;;;;7638466;22;81405;-54
2023/07/01 12:53:19;;;;;;;7.15;6.07;;;25.70;76.20;;;;;;7639060;22;80317;-57
2023/07/01 12:56:20;;;;;;;12.93;6.57;;;25.70;75.80;;;;;;7641554;22;81640;-56
2023/07/01 12:59:21;;;;;;;6.57;5.50;;;25.80;75.10;;;;;;7639763;22;80186;-57
2023/07/01 13:02:22;;;;;;;12.63;6.40;;;25.80;74.80;;;;;;7641519;22;80694;-56
2023/07/01 13:05:22;;;;;;;9.95;6.10;;;25.80;75.30;;;;;;7632126;22;80762;-56
2023/07/01 13:08:23;;;;;;;9.60;5.70;;;25.80;74.90;;;;;;7635850;22;80661;-56
2023/07/01 13:11:23;;;;;;;6.65;5.30;;;25.80;73.90;;;;;;7637147;22;81716;-57
2023/07/01 13:14:24;;;;;;;8.55;6.22;;;25.80;75.20;;;;;;7637004;22;80427;-58
2023/07/01 13:17:24;;;;;;;7.82;5.80;;;25.80;75.40;;;;;;7637947;22;80840;-56
2023/07/01 13:20:28;;;;;;;7.28;5.63;;;25.90;75.50;;;;;;7634316;22;80367;-57
2023/07/01 13:23:28;;;;;;;6.43;5.38;;;25.90;75.40;;;;;;7635539;22;80735;-57
2023/07/01 13:26:29;;;;;;;10.43;5.90;;;25.90;75.80;;;;;;7636072;22;80816;-57
2023/07/01 13:29:30;;;;;;;9.43;6.97;;;26.00;76.80;;;;;;7634570;22;80637;-57
2023/07/01 13:32:30;;;;;;;8.20;7.20;;;25.90;76.80;;;;;;7634439;22;80527;-67
2023/07/01 13:35:31;;;;;;;11.88;7.05;;;26.00;76.60;;;;;;7635354;22;80477;-64
2023/07/01 13:38:31;;;;;;;7.88;5.80;;;25.90;76.00;;;;;;7631246;22;81475;-65
2023/07/01 13:41:32;;;;;;;9.18;6.40;;;25.90;75.80;;;;;;7635229;22;80590;-68
2023/07/01 13:44:32;;;;;;;6.75;5.95;;;25.90;75.10;;;;;;7636252;22;80549;-66
2023/07/01 13:47:33;;;;;;;6.82;5.95;;;25.90;74.50;;;;;;7610859;22;81729;-63
2023/07/01 13:50:37;;;;;;;10.73;6.38;;;25.90;74.40;;;;;;7632104;22;81227;-59
2023/07/01 13:53:37;;;;;;;7.88;6.47;;;26.00;74.20;;;;;;7635058;22;80504;-59
2023/07/01 13:56:38;;;;;;;8.95;6.60;;;26.00;74.10;;;;;;7637739;22;80313;-58
2023/07/01 13:59:38;;;;;;;7.60;6.35;;;26.00;74.00;;;;;;7637438;22;80557;-58
2023/07/01 14:02:39;;;;;;;8.52;6.72;;;26.00;74.10;;;;;;7633570;22;80922;-62
2023/07/01 14:05:40;;;;;;;9.25;6.13;;;26.00;74.40;;;;;;7630599;22;80771;-55
2023/07/01 14:08:41;;;;;;;11.57;6.32;;;25.90;74.40;;;;;;7639658;22;81193;-68
2023/07/01 14:11:42;;;;;;;9.55;6.32;;;26.00;75.70;;;;;;7642667;22;80767;-69
2023/07/01 14:14:44;;;;;;;11.80;6.35;;;26.00;75.70;;;;;;7643687;22;80323;-72
2023/07/01 14:17:45;;;;;;;9.38;7.43;;;26.00;75.60;;;;;;7645101;22;81259;-69
2023/07/01 14:20:46;;;;;;;8.13;7.32;;;26.00;75.80;;;;;;7644925;22;80374;-67
2023/07/01 14:23:54;;;;;;;12.35;7.47;;;26.00;75.80;;;;;;7644779;22;80196;-68
2023/07/01 14:26:54;;;;;;;9.57;7.03;;;25.90;75.70;;;;;;7642376;22;80104;-74
2023/07/01 14:29:55;;;;;;;7.72;6.93;;;26.00;76.40;;;;;;7641855;22;80614;-74
2023/07/01 14:32:55;;;;;;;6.63;5.97;;;26.00;75.60;;;;;;7638432;22;80853;-74
2023/07/01 14:35:56;;;;;;;7.50;6.70;;;26.10;75.20;;;;;;7630535;22;80657;-63
2023/07/01 14:38:58;;;;;;;8.73;7.13;;;26.10;76.20;;;;;;7635445;22;80922;-66
2023/07/01 14:41:59;;;;;;;8.68;7.03;;;26.20;76.30;;;;;;7637167;22;80631;-66
2023/07/01 14:44:59;;;;;;;9.43;7.20;;;26.20;75.90;;;;;;7638034;22;80109;-66
2023/07/01 14:48:00;;;;;;;9.20;7.47;;;26.20;75.90;;;;;;7612252;22;82115;-67
2023/07/01 14:51:01;;;;;;;12.45;8.85;;;26.20;75.80;;;;;;7637945;22;81660;-69
2023/07/01 14:54:01;;;;;;;10.18;7.90;;;26.30;76.00;;;;;;7639928;22;82608;-66
2023/07/01 14:57:02;;;;;;;10.23;7.18;;;26.20;75.70;;;;;;7639692;22;80359;-66
2023/07/01 15:00:03;;;;;;;9.65;7.30;;;26.30;75.90;;;;;;7639662;22;80505;-66
2023/07/01 15:03:03;;;;;;;8.30;7.40;;;26.20;74.90;;;;;;7641448;22;80356;-67
2023/07/01 15:06:04;;;;;;;8.57;7.38;;;26.30;74.30;;;;;;7640684;22;80689;-63
2023/07/01 15:09:05;;;;;;;8.77;7.22;;;26.20;73.90;;;;;;7639117;22;80292;-66
2023/07/01 15:12:05;;;;;;;14.10;7.78;;;26.20;74.30;;;;;;7639978;22;80615;-64
2023/07/01 15:15:06;;;;;;;15.10;8.00;;;26.20;74.90;;;;;;7640807;22;81285;-67
2023/07/01 15:18:06;;;;;;;16.02;8.63;;;26.20;75.50;;;;;;7639159;22;80209;-71
2023/07/01 15:21:07;;;;;;;12.57;8.13;;;26.20;75.30;;;;;;7644770;22;80516;-68
2023/07/01 15:24:08;;;;;;;9.32;7.95;;;26.20;73.40;;;;;;7644967;22;80243;-69
2023/07/01 15:27:08;;;;;;;11.32;7.95;;;26.20;73.10;;;;;;7643247;22;80699;-68
2023/07/01 15:30:09;;;;;;;11.73;7.32;;;26.20;75.00;;;;;;7660173;22;80116;-68
2023/07/01 15:33:09;;;;;;;8.85;7.57;;;26.20;76.10;;;;;;7647507;22;80607;-67
2023/07/01 15:36:11;;;;;;;38.47;23.40;;;26.20;76.60;;;;;;7643025;22;80064;-66
2023/07/01 15:39:11;;;;;;;92.00;52.80;;;26.20;76.90;;;;;;7637180;22;83475;-46